Time;durP1;ratioP1;P1;durP2;ratioP2;P2;SDS_P1;SDS_P2;PMS_P1;PMS_P2;Temp;Humidity;BMP_temperature;BMP_pressure;BME280_temperature;BME280_humidity;BME280_pressure;Samples;Min_cycle;Max_cycle;Signal;HPM_P1;HPM_P2
2022/04/10 00:01:29;;;;;;;;;;;;;;;6.73;52.13;101367.81;5049445;28;19979;-75
2022/04/10 00:03:54;;;;;;;;;;;;;;;6.80;51.22;101361.81;5045990;28;19924;-75
2022/04/10 00:06:20;;;;;;;;;;;;;;;6.63;51.46;101363.47;5054693;28;20611;-79
2022/04/10 00:08:45;;;;;;;;;;;;;;;6.62;51.95;101369.47;5033061;28;19932;-76
2022/04/10 00:11:10;;;;;;;;;;;;;;;6.63;51.87;101372.09;5049702;28;20511;-78
2022/04/10 00:13:36;;;;;;;;;;;;;;;6.60;51.52;101371.19;5050428;28;19967;-79
2022/04/10 00:16:02;;;;;;;;;;;;;;;6.68;52.28;101372.09;5048287;28;19924;-78
2022/04/10 00:18:27;;;;;;;;;;;;;;;6.72;52.11;101373.84;5032168;28;19925;-77
2022/04/10 00:20:53;;;;;;;;;;;;;;;6.66;51.83;101377.25;5051395;28;19974;-79
2022/04/10 00:23:18;;;;;;;;;;;;;;;6.65;51.42;101374.66;5042269;28;19996;-79
2022/04/10 00:25:43;;;;;;;;;;;;;;;6.76;50.99;101371.28;5029218;28;19924;-77
2022/04/10 00:28:09;;;;;;;;;;;;;;;6.68;51.70;101372.97;5041467;28;20267;-79
2022/04/10 00:30:34;;;;;;;;;;;;;;;6.64;51.09;101380.66;5047992;28;19924;-78
2022/04/10 00:33:00;;;;;;;;;;;;;;;6.47;51.87;101380.56;5047932;28;19924;-79
2022/04/10 00:35:25;;;;;;;;;;;;;;;6.53;52.10;101376.34;5050590;28;19932;-80
2022/04/10 00:37:51;;;;;;;;;;;;;;;6.63;51.65;101377.25;5032366;28;20011;-75
2022/04/10 00:40:16;;;;;;;;;;;;;;;6.76;51.15;101383.31;5029935;28;20679;-79
2022/04/10 00:42:47;;;;;;;;;;;;;;;6.74;52.44;101380.75;5043447;28;19924;-79
2022/04/10 00:45:12;;;;;;;;;;;;;;;6.72;51.67;101373.84;5054471;28;19931;-77
2022/04/10 00:47:37;;;;;;;;;;;;;;;6.57;51.37;101382.38;5045752;28;19928;-80
2022/04/10 00:50:04;;;;;;;;;;;;;;;6.54;51.66;101384.94;5048143;28;19920;-79
2022/04/10 00:52:30;;;;;;;;;;;;;;;6.76;51.31;101388.47;5042354;28;19979;-79
2022/04/10 00:54:56;;;;;;;;;;;;;;;6.55;51.89;101387.53;5048226;28;20329;-79
2022/04/10 00:57:23;;;;;;;;;;;;;;;6.64;50.55;101385.84;5055896;28;19946;-80
2022/04/10 00:59:48;;;;;;;;;;;;;;;6.54;51.30;101382.38;5050208;28;20003;-79
2022/04/10 01:02:13;;;;;;;;;;;;;;;6.61;50.94;101384.09;5048245;28;20007;-75
2022/04/10 01:04:39;;;;;;;;;;;;;;;6.58;51.70;101381.50;5051702;28;19924;-76
2022/04/10 01:07:05;;;;;;;;;;;;;;;6.51;51.63;101387.50;5046689;28;19971;-75
2022/04/10 01:09:33;;;;;;;;;;;;;;;6.53;51.41;101383.22;5050855;28;19951;-75
2022/04/10 01:11:59;;;;;;;;;;;;;;;6.28;51.76;101383.88;5029444;28;19928;-79
2022/04/10 01:14:25;;;;;;;;;;;;;;;6.47;51.15;101376.31;5030854;28;19971;-79
2022/04/10 01:16:50;;;;;;;;;;;;;;;6.40;51.61;101389.97;5043724;28;19920;-79
2022/04/10 01:19:17;;;;;;;;;;;;;;;6.33;52.62;101385.66;5047268;28;19925;-79
2022/04/10 01:21:44;;;;;;;;;;;;;;;6.42;52.19;101385.72;5047730;28;19951;-79
2022/04/10 01:24:11;;;;;;;;;;;;;;;6.28;52.56;101389.03;5044705;28;19967;-75
2022/04/10 01:26:36;;;;;;;;;;;;;;;6.56;50.91;101390.97;5043128;28;20023;-77
2022/04/10 01:29:03;;;;;;;;;;;;;;;6.72;51.42;101387.63;5043945;28;19925;-78
2022/04/10 01:31:30;;;;;;;;;;;;;;;6.47;51.93;101390.88;5043769;28;20015;-77
2022/04/10 01:33:57;;;;;;;;;;;;;;;6.61;50.65;101389.25;5046174;28;20397;-75
2022/04/10 01:36:23;;;;;;;;;;;;;;;6.62;51.79;101387.56;5049310;28;19999;-75
2022/04/10 01:38:50;;;;;;;;;;;;;;;6.50;51.38;101393.53;5049627;28;20011;-78
2022/04/10 01:41:16;;;;;;;;;;;;;;;6.47;52.27;101396.03;5044220;28;20412;-77
2022/04/10 01:43:45;;;;;;;;;;;;;;;6.63;50.90;101387.56;5044068;28;20048;-77
2022/04/10 01:46:11;;;;;;;;;;;;;;;6.53;52.09;101385.78;5047840;28;19971;-77
2022/04/10 01:48:36;;;;;;;;;;;;;;;6.34;51.29;101386.50;5045324;28;19925;-77
2022/04/10 01:51:02;;;;;;;;;;;;;;;6.56;51.30;101389.25;5046234;28;20495;-77
2022/04/10 01:53:27;;;;;;;;;;;;;;;6.53;51.29;101389.25;5046524;28;20377;-77
2022/04/10 01:55:53;;;;;;;;;;;;;;;6.35;51.91;101385.66;5046506;28;19924;-80
2022/04/10 01:58:18;;;;;;;;;;;;;;;6.53;51.21;101380.63;5045065;28;19928;-75
2022/04/10 02:00:44;;;;;;;;;;;;;;;6.39;51.82;101382.25;5045763;28;19931;-80
2022/04/10 02:03:09;;;;;;;;;;;;;;;6.54;51.53;101379.78;5044313;28;19921;-75
2022/04/10 02:05:35;;;;;;;;;;;;;;;6.07;53.03;101379.44;5047668;28;20341;-79
2022/04/10 02:08:01;;;;;;;;;;;;;;;6.18;53.11;101385.56;5046249;28;19939;-78
2022/04/10 02:10:26;;;;;;;;;;;;;;;6.33;51.85;101380.50;5051787;28;20402;-77
2022/04/10 02:12:52;;;;;;;;;;;;;;;6.39;51.77;101379.66;5053368;28;20300;-77
2022/04/10 02:15:17;;;;;;;;;;;;;;;6.45;51.86;101378.00;5033150;28;19921;-77
2022/04/10 02:17:42;;;;;;;;;;;;;;;6.22;52.54;101379.53;5046884;28;19921;-77
2022/04/10 02:20:08;;;;;;;;;;;;;;;6.44;52.26;101378.84;5046810;28;20497;-75
2022/04/10 02:22:33;;;;;;;;;;;;;;;6.46;51.84;101378.81;5046266;28;19921;-75
2022/04/10 02:24:58;;;;;;;;;;;;;;;6.52;51.92;101373.72;5046973;28;19921;-75
2022/04/10 02:27:24;;;;;;;;;;;;;;;6.49;52.00;101373.72;5038560;28;19932;-75
2022/04/10 02:29:49;;;;;;;;;;;;;;;6.43;52.53;101377.09;5038999;28;19983;-79
2022/04/10 02:32:14;;;;;;;;;;;;;;;6.37;51.61;101379.63;5047534;28;19986;-80
2022/04/10 02:34:40;;;;;;;;;;;;;;;6.33;51.66;101383.06;5053392;28;19920;-79
2022/04/10 02:37:05;;;;;;;;;;;;;;;6.29;52.65;101388.19;5028332;28;20381;-80
2022/04/10 02:39:31;;;;;;;;;;;;;;;6.09;53.01;101392.34;5052115;28;19968;-79
2022/04/10 02:41:56;;;;;;;;;;;;;;;6.31;53.02;101394.22;5042463;28;19929;-80
2022/04/10 02:44:21;;;;;;;;;;;;;;;6.41;51.84;101388.28;5042585;28;21619;-77
2022/04/10 02:46:46;;;;;;;;;;;;;;;6.54;51.30;101387.53;5050110;28;20109;-77
2022/04/10 02:49:12;;;;;;;;;;;;;;;6.48;52.06;101395.22;5047540;28;19924;-79
2022/04/10 02:51:37;;;;;;;;;;;;;;;6.29;52.07;101393.34;5049945;28;20368;-79
2022/04/10 02:54:02;;;;;;;;;;;;;;;6.56;51.19;101386.69;5048587;28;19974;-77
2022/04/10 02:56:28;;;;;;;;;;;;;;;6.38;51.62;101396.84;5033067;28;20297;-77
2022/04/10 02:58:53;;;;;;;;;;;;;;;6.40;51.56;101399.44;5049727;28;19991;-77
2022/04/10 03:01:18;;;;;;;;;;;;;;;6.39;51.97;101405.47;5050565;28;19998;-80
2022/04/10 03:03:43;;;;;;;;;;;;;;;6.30;53.22;101405.41;5048525;28;19920;-78
2022/04/10 03:06:09;;;;;;;;;;;;;;;6.52;50.70;101413.31;5051331;28;19929;-78
2022/04/10 03:08:34;;;;;;;;;;;;;;;6.44;52.09;101412.38;5051395;28;20508;-80
2022/04/10 03:10:59;;;;;;;;;;;;;;;6.30;53.16;101415.72;5031321;28;19931;-80
2022/04/10 03:13:25;;;;;;;;;;;;;;;6.42;51.77;101424.41;5033062;28;19925;-80
2022/04/10 03:15:50;;;;;;;;;;;;;;;6.63;52.15;101420.25;5044595;28;20374;-75
2022/04/10 03:18:15;;;;;;;;;;;;;;;6.55;52.83;101422.78;5047821;28;19983;-76
2022/04/10 03:20:40;;;;;;;;;;;;;;;6.41;51.48;101420.09;5050832;28;20373;-77
2022/04/10 03:23:08;;;;;;;;;;;;;;;6.35;53.25;101421.78;5034874;28;20690;-75
2022/04/10 03:25:34;;;;;;;;;;;;;;;6.69;52.23;101416.00;5049328;28;19921;-80
2022/04/10 03:27:59;;;;;;;;;;;;;;;6.56;52.30;101433.13;5039825;28;19932;-79
2022/04/10 03:30:25;;;;;;;;;;;;;;;6.53;52.83;101422.78;5048620;28;19924;-80
2022/04/10 03:32:50;;;;;;;;;;;;;;;6.52;52.74;101422.78;5050264;28;20362;-78
2022/04/10 03:35:15;;;;;;;;;;;;;;;6.58;51.96;101428.84;5050378;28;19936;-75
2022/04/10 03:37:41;;;;;;;;;;;;;;;6.54;52.25;101426.25;5040634;28;19921;-80
2022/04/10 03:40:06;;;;;;;;;;;;;;;6.34;52.32;101427.78;5049889;28;19925;-80
2022/04/10 03:42:39;;;;;;;;;;;;;;;6.64;52.54;101429.72;5048368;28;19931;-78
2022/04/10 03:45:05;;;;;;;;;;;;;;;6.63;52.96;101434.03;5048549;28;19929;-78
2022/04/10 03:47:30;;;;;;;;;;;;;;;6.54;53.48;101441.72;5044041;28;19975;-77
2022/04/10 03:49:55;;;;;;;;;;;;;;;6.46;53.00;101435.59;5031430;28;20374;-77
2022/04/10 03:52:21;;;;;;;;;;;;;;;6.58;52.86;101440.88;5061058;28;19924;-80
2022/04/10 03:54:46;;;;;;;;;;;;;;;6.54;53.76;101445.16;5035647;28;19913;-79
2022/04/10 03:57:12;;;;;;;;;;;;;;;6.64;53.82;101433.16;5051294;28;19970;-75
2022/04/10 03:59:37;;;;;;;;;;;;;;;6.65;53.51;101441.78;5050023;28;19920;-79
2022/04/10 04:02:02;;;;;;;;;;;;;;;6.54;52.77;101445.16;5043374;28;19990;-80
2022/04/10 04:04:28;;;;;;;;;;;;;;;6.50;53.29;101446.00;5048142;28;19967;-75
2022/04/10 04:06:53;;;;;;;;;;;;;;;6.47;53.46;101448.56;5045222;28;19925;-76
2022/04/10 04:09:18;;;;;;;;;;;;;;;6.51;53.57;101452.03;5047109;28;20756;-80
2022/04/10 04:11:43;;;;;;;;;;;;;;;6.47;52.83;101443.41;5047655;28;19952;-80
2022/04/10 04:14:09;;;;;;;;;;;;;;;6.63;52.99;101454.69;5047210;28;19936;-77
2022/04/10 04:16:34;;;;;;;;;;;;;;;6.62;52.76;101450.38;5046748;28;20439;-79
2022/04/10 04:18:59;;;;;;;;;;;;;;;6.48;52.83;101459.75;5033086;28;20028;-75
2022/04/10 04:21:25;;;;;;;;;;;;;;;6.73;52.69;101453.88;5048429;28;20034;-77
2022/04/10 04:23:51;;;;;;;;;;;;;;;6.74;53.07;101455.63;5051865;28;20019;-80
2022/04/10 04:26:16;;;;;;;;;;;;;;;6.73;52.87;101465.91;5039716;28;19925;-78
2022/04/10 04:28:42;;;;;;;;;;;;;;;6.75;52.85;101467.66;5047481;28;19979;-75
2022/04/10 04:31:07;;;;;;;;;;;;;;;6.67;53.63;101476.19;5044297;28;19932;-75
2022/04/10 04:33:32;;;;;;;;;;;;;;;6.77;52.74;101472.84;5051141;28;19936;-79
2022/04/10 04:35:57;;;;;;;;;;;;;;;6.84;52.63;101475.44;5042221;28;20410;-80
2022/04/10 04:38:23;;;;;;;;;;;;;;;6.64;52.28;101471.03;5048659;28;19921;-80
2022/04/10 04:40:48;;;;;;;;;;;;;;;6.74;52.82;101476.28;5047568;28;20398;-75
2022/04/10 04:43:13;;;;;;;;;;;;;;;6.79;53.12;101482.31;5041721;28;19959;-75
2022/04/10 04:45:38;;;;;;;;;;;;;;;6.71;53.57;101486.56;5054620;28;19925;-76
2022/04/10 04:48:04;;;;;;;;;;;;;;;7.00;52.86;101481.56;5049042;28;20352;-79
2022/04/10 04:50:29;;;;;;;;;;;;;;;6.82;53.41;101492.66;5049754;28;19932;-80
2022/04/10 04:52:55;;;;;;;;;;;;;;;6.99;53.26;101491.03;5054279;28;19928;-75
2022/04/10 04:55:20;;;;;;;;;;;;;;;6.95;52.99;101494.47;5045215;28;19970;-75
2022/04/10 04:57:46;;;;;;;;;;;;;;;6.88;55.24;101500.44;5046871;28;19931;-77
2022/04/10 05:00:11;;;;;;;;;;;;;;;6.84;55.68;101498.69;5033275;28;19925;-79
2022/04/10 05:02:37;;;;;;;;;;;;;;;6.87;54.72;101497.88;5047807;28;20011;-78
2022/04/10 05:05:02;;;;;;;;;;;;;;;6.85;55.05;101499.56;5049293;28;19967;-80
2022/04/10 05:07:27;;;;;;;;;;;;;;;6.79;55.58;101496.94;5046238;28;19939;-79
2022/04/10 05:09:53;;;;;;;;;;;;;;;6.75;55.93;101501.22;5050062;28;19921;-78
2022/04/10 05:12:18;;;;;;;;;;;;;;;6.77;54.06;101506.41;5044128;28;19983;-77
2022/04/10 05:14:45;;;;;;;;;;;;;;;6.74;56.02;101511.53;5047036;28;19968;-79
2022/04/10 05:17:11;;;;;;;;;;;;;;;6.68;54.80;101512.38;5046558;28;20400;-79
2022/04/10 05:19:36;;;;;;;;;;;;;;;6.79;53.56;101517.59;5048299;28;19925;-78
2022/04/10 05:22:01;;;;;;;;;;;;;;;6.61;54.55;101523.50;5050833;28;20444;-79
2022/04/10 05:24:27;;;;;;;;;;;;;;;6.64;54.68;101520.94;5049256;28;19936;-79
2022/04/10 05:26:52;;;;;;;;;;;;;;;6.63;54.24;101519.22;5046040;28;19939;-79
2022/04/10 05:29:18;;;;;;;;;;;;;;;6.65;55.91;101517.53;5042805;28;19925;-80
2022/04/10 05:31:43;;;;;;;;;;;;;;;6.74;55.31;101519.28;5040014;28;19944;-79
2022/04/10 05:34:08;;;;;;;;;;;;;;;6.87;55.33;101519.38;5044281;28;19974;-79
2022/04/10 05:36:34;;;;;;;;;;;;;;;6.60;56.49;101523.50;5046277;28;19917;-76
2022/04/10 05:38:59;;;;;;;;;;;;;;;6.76;56.24;101528.78;5042851;28;20578;-80
2022/04/10 05:41:24;;;;;;;;;;;;;;;6.81;54.99;101529.66;5040397;28;19975;-80
2022/04/10 05:43:49;;;;;;;;;;;;;;;6.84;55.16;101534.84;5022444;28;19976;-78
2022/04/10 05:46:15;;;;;;;;;;;;;;;6.74;54.49;101539.94;5044042;28;20011;-76
2022/04/10 05:48:40;;;;;;;;;;;;;;;6.94;54.97;101536.63;5035894;28;20015;-79
2022/04/10 05:51:08;;;;;;;;;;;;;;;6.94;55.78;101538.34;5041087;28;19925;-78
2022/04/10 05:53:34;;;;;;;;;;;;;;;6.96;55.64;101537.50;5026762;28;19925;-77
2022/04/10 05:55:59;;;;;;;;;;;;;;;7.07;56.13;101535.00;5034272;28;20019;-78
2022/04/10 05:58:24;;;;;;;;;;;;;;;7.01;56.90;101537.53;5039857;28;19968;-80
2022/04/10 06:00:49;;;;;;;;;;;;;;;7.06;55.36;101541.88;5043908;28;19925;-80
2022/04/10 06:03:15;;;;;;;;;;;;;;;7.12;55.17;101549.66;5047058;28;19932;-80
2022/04/10 06:05:40;;;;;;;;;;;;;;;7.14;55.18;101544.50;5024534;28;19970;-80
2022/04/10 06:08:06;;;;;;;;;;;;;;;6.93;55.75;101552.97;5042951;28;19929;-75
2022/04/10 06:10:31;;;;;;;;;;;;;;;7.08;54.99;101550.50;5043720;28;19928;-76
2022/04/10 06:13:05;;;;;;;;;;;;;;;7.02;56.10;101549.59;5056943;28;19925;-76
2022/04/10 06:15:31;;;;;;;;;;;;;;;7.05;55.05;101547.91;5044991;28;19927;-78
2022/04/10 06:17:56;;;;;;;;;;;;;;;7.07;56.25;101550.50;5045302;28;19929;-77
2022/04/10 06:20:21;;;;;;;;;;;;;;;7.04;54.94;101548.78;5040376;28;19948;-80
2022/04/10 06:22:47;;;;;;;;;;;;;;;7.09;56.35;101556.53;5029182;28;20020;-80
2022/04/10 06:25:12;;;;;;;;;;;;;;;7.02;56.22;101554.75;5040264;28;19928;-76
2022/04/10 06:27:37;;;;;;;;;;;;;;;7.09;54.72;101562.56;5043026;28;20528;-79
2022/04/10 06:30:03;;;;;;;;;;;;;;;7.17;55.59;101561.75;5045190;28;19955;-75
2022/04/10 06:32:31;;;;;;;;;;;;;;;7.21;54.56;101566.06;5044891;28;20328;-79
2022/04/10 06:34:56;;;;;;;;;;;;;;;7.07;54.34;101566.00;5033762;28;20296;-75
2022/04/10 06:37:22;;;;;;;;;;;;;;;7.39;54.05;101561.00;5049055;28;19925;-80
2022/04/10 06:39:47;;;;;;;;;;;;;;;7.17;53.42;101562.59;5040095;28;19917;-77
2022/04/10 06:42:12;;;;;;;;;;;;;;;7.22;54.47;101570.38;5039706;28;19989;-79
2022/04/10 06:44:40;;;;;;;;;;;;;;;7.32;54.81;101570.44;5040174;28;19958;-81
2022/04/10 06:47:05;;;;;;;;;;;;;;;7.33;52.53;101573.88;5044960;28;19937;-80
2022/04/10 06:49:31;;;;;;;;;;;;;;;7.44;53.05;101583.41;5015341;28;19928;-75
2022/04/10 06:51:56;;;;;;;;;;;;;;;7.33;52.39;101579.94;5044020;28;19920;-77
2022/04/10 06:54:21;;;;;;;;;;;;;;;7.35;52.19;101577.34;5043964;28;19920;-77
2022/04/10 06:56:47;;;;;;;;;;;;;;;7.33;52.41;101576.47;5045042;28;20532;-78
2022/04/10 06:59:12;;;;;;;;;;;;;;;7.58;52.92;101570.56;5028094;28;19924;-78
2022/04/10 07:01:38;;;;;;;;;;;;;;;7.71;52.94;101574.91;5036191;28;19929;-77
2022/04/10 07:04:03;;;;;;;;;;;;;;;7.55;53.07;101576.56;5044873;28;20301;-77
2022/04/10 07:06:29;;;;;;;;;;;;;;;7.68;51.68;101586.13;5047094;28;19920;-80
2022/04/10 07:08:54;;;;;;;;;;;;;;;7.68;53.01;101583.53;5044645;28;19927;-80
2022/04/10 07:11:19;;;;;;;;;;;;;;;7.80;51.25;101581.84;5043558;28;19929;-76
2022/04/10 07:13:45;;;;;;;;;;;;;;;7.54;50.61;101584.34;5038710;28;19925;-80
2022/04/10 07:16:10;;;;;;;;;;;;;;;7.70;51.03;101579.22;5033223;28;19948;-80
2022/04/10 07:18:35;;;;;;;;;;;;;;;7.94;50.27;101586.19;5045357;28;19947;-80
2022/04/10 07:21:01;;;;;;;;;;;;;;;7.95;50.91;101584.47;5025560;28;20401;-80
2022/04/10 07:23:45;;;;;;;;;;;;;;;7.87;51.39;101588.78;5043814;28;19928;-80
2022/04/10 07:26:11;;;;;;;;;;;;;;;7.92;50.83;101592.22;5043151;28;19921;-76
2022/04/10 07:28:40;;;;;;;;;;;;;;;7.81;51.11;101589.63;5045012;28;19920;-76
2022/04/10 07:31:06;;;;;;;;;;;;;;;8.03;49.95;101593.97;5042231;28;20313;-77
2022/04/10 07:33:31;;;;;;;;;;;;;;;7.96;50.39;101594.84;5045704;28;19925;-77
2022/04/10 07:35:57;;;;;;;;;;;;;;;7.95;51.07;101603.44;5044752;28;19948;-77
2022/04/10 07:38:22;;;;;;;;;;;;;;;8.00;49.29;101603.47;5046578;28;19986;-77
2022/04/10 07:40:48;;;;;;;;;;;;;;;7.56;52.08;101621.38;5032154;28;19928;-77
2022/04/10 07:43:13;;;;;;;;;;;;;;;7.97;51.54;101612.06;5035187;28;19939;-75
2022/04/10 07:48:22;;;;;;;;;;;;;;;7.94;51.38;101601.72;5044176;28;19932;-76
2022/04/10 07:50:47;;;;;;;;;;;;;;;8.09;51.23;101611.22;5039984;28;19925;-79
2022/04/10 07:53:13;;;;;;;;;;;;;;;8.14;50.83;101617.31;5043653;28;20370;-80
2022/04/10 07:55:38;;;;;;;;;;;;;;;7.89;50.40;101624.13;5043619;28;19970;-80
2022/04/10 07:58:04;;;;;;;;;;;;;;;7.73;51.79;101624.06;5047538;28;19921;-79
2022/04/10 08:00:32;;;;;;;;;;;;;;;7.79;50.68;101627.53;5051154;28;20407;-80
2022/04/10 08:03:00;;;;;;;;;;;;;;;7.91;51.30;101624.97;5048232;28;19924;-77
2022/04/10 08:05:26;;;;;;;;;;;;;;;8.01;50.04;101629.34;5046766;28;20445;-77
2022/04/10 08:07:51;;;;;;;;;;;;;;;7.95;49.82;101634.50;5047541;28;20016;-77
2022/04/10 08:10:16;;;;;;;;;;;;;;;8.12;49.51;101635.41;5049903;28;19925;-75
2022/04/10 08:12:42;;;;;;;;;;;;;;;8.06;50.25;101629.34;5048148;28;19948;-75
2022/04/10 08:15:08;;;;;;;;;;;;;;;8.01;49.09;101641.41;5050131;28;19943;-79
2022/04/10 08:17:34;;;;;;;;;;;;;;;7.90;48.73;101635.34;5050132;28;20016;-78
2022/04/10 08:19:59;;;;;;;;;;;;;;;7.61;49.80;101638.66;5031508;28;20377;-78
2022/04/10 08:22:27;;;;;;;;;;;;;;;8.00;49.08;101642.28;5044162;28;20027;-75
2022/04/10 08:24:53;;;;;;;;;;;;;;;8.15;49.96;101642.31;5042560;28;19970;-76
2022/04/10 08:27:19;;;;;;;;;;;;;;;7.97;49.95;101644.88;5044032;28;19995;-75
2022/04/10 08:29:44;;;;;;;;;;;;;;;8.28;50.44;101646.66;5055210;28;19924;-75
2022/04/10 08:32:09;;;;;;;;;;;;;;;8.24;49.46;101658.72;5049147;28;19924;-76
2022/04/10 08:34:35;;;;;;;;;;;;;;;8.25;49.25;101657.00;5049753;28;19936;-80
2022/04/10 08:37:05;;;;;;;;;;;;;;;8.12;49.66;101650.94;5050050;28;19944;-80
2022/04/10 08:39:30;;;;;;;;;;;;;;;8.04;49.61;101660.41;5044586;28;19947;-80
2022/04/10 08:41:57;;;;;;;;;;;;;;;7.96;50.06;101663.81;5043072;28;20574;-79
2022/04/10 08:44:22;;;;;;;;;;;;;;;7.85;49.42;101657.75;5039550;28;19933;-78
2022/04/10 08:46:49;;;;;;;;;;;;;;;7.92;50.75;101656.91;5042232;28;20467;-79
2022/04/10 08:49:17;;;;;;;;;;;;;;;8.27;47.74;101653.56;5024003;28;19923;-79
2022/04/10 08:51:42;;;;;;;;;;;;;;;8.41;48.93;101663.13;5048672;28;19917;-80
2022/04/10 08:54:08;;;;;;;;;;;;;;;8.27;49.08;101657.88;5038101;28;19921;-78
2022/04/10 08:56:33;;;;;;;;;;;;;;;8.34;47.63;101658.78;5047249;28;19974;-77
2022/04/10 08:58:58;;;;;;;;;;;;;;;8.44;49.02;101651.06;5043786;28;19925;-75
2022/04/10 09:01:23;;;;;;;;;;;;;;;8.50;46.53;101652.78;5052883;28;20019;-79
2022/04/10 09:03:49;;;;;;;;;;;;;;;8.49;46.37;101657.09;5043267;28;20374;-79
2022/04/10 09:06:15;;;;;;;;;;;;;;;8.55;47.74;101654.53;5038821;28;19979;-80
2022/04/10 09:08:40;;;;;;;;;;;;;;;8.63;46.98;101650.22;5029993;28;20039;-80
2022/04/10 09:11:08;;;;;;;;;;;;;;;8.33;48.07;101660.50;5045665;28;19924;-80
2022/04/10 09:13:37;;;;;;;;;;;;;;;8.27;47.48;101652.69;5051382;28;19975;-80
2022/04/10 09:16:14;;;;;;;;;;;;;;;8.41;47.92;101651.06;5050131;28;20027;-75
2022/04/10 09:18:42;;;;;;;;;;;;;;;8.53;45.56;101656.25;5041207;28;19921;-75
2022/04/10 09:21:08;;;;;;;;;;;;;;;8.51;44.67;101652.78;5038199;28;19960;-80
2022/04/10 09:23:34;;;;;;;;;;;;;;;8.61;46.05;101653.66;5044881;28;21972;-79
2022/04/10 09:25:59;;;;;;;;;;;;;;;8.45;45.46;101663.13;5036522;28;19937;-79
2022/04/10 09:28:42;;;;;;;;;;;;;;;8.70;42.98;101664.91;5047383;28;20344;-79
2022/04/10 09:31:23;;;;;;;;;;;;;;;8.49;41.62;101661.41;5043179;28;19932;-77
2022/04/10 09:33:52;;;;;;;;;;;;;;;8.21;43.56;101663.91;5047346;28;19965;-77
2022/04/10 09:36:27;;;;;;;;;;;;;;;8.43;42.63;101657.09;5044471;28;19920;-77
2022/04/10 09:38:53;;;;;;;;;;;;;;;8.52;42.98;101659.69;5049487;28;20377;-77
2022/04/10 09:41:19;;;;;;;;;;;;;;;8.52;43.02;101661.41;5045046;28;19987;-77
2022/04/10 09:43:45;;;;;;;;;;;;;;;8.71;42.46;101652.81;5042262;28;19969;-78
2022/04/10 09:46:13;;;;;;;;;;;;;;;8.28;41.93;101651.84;5045844;28;19929;-79
2022/04/10 09:48:38;;;;;;;;;;;;;;;8.53;41.58;101655.41;5045719;28;19936;-75
2022/04/10 09:51:04;;;;;;;;;;;;;;;8.43;42.18;101657.09;5052033;28;19928;-75
2022/04/10 09:53:32;;;;;;;;;;;;;;;8.41;42.55;101655.38;5044872;28;20673;-76
2022/04/10 09:56:02;;;;;;;;;;;;;;;8.51;42.72;101668.31;5030021;28;19927;-77
2022/04/10 09:58:27;;;;;;;;;;;;;;;8.04;44.38;101659.53;5047469;28;20017;-75
2022/04/10 10:00:56;;;;;;;;;;;;;;;8.60;42.41;101651.94;5045918;28;19928;-80
2022/04/10 10:03:25;;;;;;;;;;;;;;;8.75;43.24;101659.72;5046244;28;20022;-80
2022/04/10 10:05:52;;;;;;;;;;;;;;;8.53;40.66;101657.97;5050566;28;19925;-80
2022/04/10 10:08:17;;;;;;;;;;;;;;;8.56;41.12;101655.41;5045402;28;19920;-77
2022/04/10 10:10:43;;;;;;;;;;;;;;;8.96;41.36;101656.25;5030445;28;19924;-77
2022/04/10 10:13:08;;;;;;;;;;;;;;;8.87;40.35;101651.09;5034816;28;19924;-77
2022/04/10 10:15:37;;;;;;;;;;;;;;;8.91;40.75;101643.31;5046678;28;20321;-77
2022/04/10 10:18:04;;;;;;;;;;;;;;;8.97;40.59;101645.91;5042262;28;19931;-79
2022/04/10 10:20:30;;;;;;;;;;;;;;;9.07;40.41;101642.44;5044865;28;20398;-77
2022/04/10 10:22:56;;;;;;;;;;;;;;;9.14;41.18;101643.28;5043761;28;20000;-79
2022/04/10 10:25:24;;;;;;;;;;;;;;;9.06;41.62;101640.72;5044530;28;19924;-79
2022/04/10 10:27:56;;;;;;;;;;;;;;;9.04;40.74;101642.44;5044532;28;20398;-79
2022/04/10 10:30:30;;;;;;;;;;;;;;;8.79;39.55;101636.41;5052404;28;20011;-78
2022/04/10 10:33:09;;;;;;;;;;;;;;;9.00;41.05;101637.28;5048920;28;19998;-78
2022/04/10 10:35:38;;;;;;;;;;;;;;;9.01;40.98;101634.66;5042736;28;20388;-80
2022/04/10 10:38:17;;;;;;;;;;;;;;;8.96;41.16;101639.00;5042516;28;19925;-80
2022/04/10 10:40:42;;;;;;;;;;;;;;;9.08;41.29;101631.22;5045882;28;19929;-76
2022/04/10 10:43:08;;;;;;;;;;;;;;;9.21;39.52;101624.28;5035803;28;19927;-80
2022/04/10 10:45:35;;;;;;;;;;;;;;;9.38;38.73;101632.03;5046711;28;19925;-80
2022/04/10 10:48:19;;;;;;;;;;;;;;;9.09;38.12;101625.19;5043046;28;19921;-80
2022/04/10 10:50:45;;;;;;;;;;;;;;;9.34;38.44;101624.25;5050677;28;19928;-80
2022/04/10 10:53:11;;;;;;;;;;;;;;;9.35;38.57;101619.94;5042629;28;19924;-75
2022/04/10 10:55:49;;;;;;;;;;;;;;;9.29;38.87;101614.75;5046327;28;20396;-77
2022/04/10 10:58:15;;;;;;;;;;;;;;;9.10;38.57;101621.69;5046338;28;19928;-76
2022/04/10 11:00:40;;;;;;;;;;;;;;;9.40;38.87;101622.50;5041889;28;19989;-75
2022/04/10 11:03:09;;;;;;;;;;;;;;;9.43;37.46;101612.97;5041521;28;21363;-80
2022/04/10 11:05:35;;;;;;;;;;;;;;;9.42;37.47;101619.06;5037545;28;19964;-80
2022/04/10 11:08:05;;;;;;;;;;;;;;;9.40;38.27;101617.31;5049731;28;19917;-80
2022/04/10 11:10:32;;;;;;;;;;;;;;;9.30;37.94;101617.38;5049617;28;19924;-78
2022/04/10 11:13:02;;;;;;;;;;;;;;;9.66;38.49;101620.72;5049123;28;20337;-80
2022/04/10 11:15:32;;;;;;;;;;;;;;;9.69;40.24;101616.34;5043570;28;20653;-75
2022/04/10 11:18:02;;;;;;;;;;;;;;;9.44;38.40;101613.84;5056914;28;20035;-75
2022/04/10 11:20:27;;;;;;;;;;;;;;;9.51;39.78;101623.34;5066114;28;19925;-75
2022/04/10 11:22:53;;;;;;;;;;;;;;;8.98;40.22;101626.06;5051643;28;19921;-75
2022/04/10 11:25:27;;;;;;;;;;;;;;;9.06;40.39;101632.94;5045929;28;19924;-79
2022/04/10 11:27:55;;;;;;;;;;;;;;;9.12;40.26;101635.53;5045913;28;19978;-80
2022/04/10 11:30:22;;;;;;;;;;;;;;;9.19;41.54;101634.66;5053330;28;19913;-80
2022/04/10 11:32:50;;;;;;;;;;;;;;;8.85;43.09;101632.97;5051478;28;20012;-75
2022/04/10 11:35:22;;;;;;;;;;;;;;;9.03;43.00;101634.69;5047754;28;20421;-75
2022/04/10 11:37:50;;;;;;;;;;;;;;;9.17;43.31;101636.38;5049137;28;19966;-75
2022/04/10 11:40:23;;;;;;;;;;;;;;;9.19;41.63;101642.41;5049143;28;19925;-75
2022/04/10 11:42:48;;;;;;;;;;;;;;;9.34;40.47;101629.44;5049685;28;19928;-76
2022/04/10 11:45:14;;;;;;;;;;;;;;;9.25;40.64;101633.78;5050283;28;19921;-75
2022/04/10 11:47:39;;;;;;;;;;;;;;;9.08;39.84;101640.72;5039200;28;20015;-78
2022/04/10 11:50:06;;;;;;;;;;;;;;;9.09;40.77;101637.25;5046127;28;20306;-78
2022/04/10 11:52:31;;;;;;;;;;;;;;;9.00;40.67;101643.31;5049037;28;19921;-79
2022/04/10 11:54:57;;;;;;;;;;;;;;;9.04;41.01;101639.84;5046877;28;19921;-78
2022/04/10 11:57:23;;;;;;;;;;;;;;;8.99;40.47;101632.94;5051735;28;19928;-77
2022/04/10 11:59:49;;;;;;;;;;;;;;;8.85;38.70;101630.38;5057519;28;19924;-78
2022/04/10 12:02:14;;;;;;;;;;;;;;;9.22;38.48;101626.88;5047475;28;20373;-78
2022/04/10 12:04:40;;;;;;;;;;;;;;;9.35;38.19;101625.13;5046848;28;21343;-78
2022/04/10 12:07:13;;;;;;;;;;;;;;;9.50;38.27;101624.22;5048217;28;19948;-75
2022/04/10 12:09:39;;;;;;;;;;;;;;;9.30;38.76;101626.88;5049046;28;20066;-75
2022/04/10 12:12:05;;;;;;;;;;;;;;;9.26;38.53;101626.00;5049116;28;20453;-80
2022/04/10 12:14:30;;;;;;;;;;;;;;;9.51;39.65;101623.34;5049032;28;20011;-79
2022/04/10 12:16:55;;;;;;;;;;;;;;;9.38;37.92;101629.44;5039853;28;19925;-79
2022/04/10 12:19:30;;;;;;;;;;;;;;;9.56;38.22;101630.25;5039321;28;19932;-79
2022/04/10 12:21:56;;;;;;;;;;;;;;;9.39;37.93;101629.44;5046436;28;20314;-78
2022/04/10 12:24:21;;;;;;;;;;;;;;;9.30;37.30;101638.09;5044501;28;19920;-77
2022/04/10 12:26:48;;;;;;;;;;;;;;;9.56;37.84;101626.78;5036863;28;20304;-75
2022/04/10 12:29:13;;;;;;;;;;;;;;;9.61;37.76;101638.00;5046176;28;19991;-75
2022/04/10 12:31:41;;;;;;;;;;;;;;;9.59;38.43;101619.00;5044944;28;20384;-75
2022/04/10 12:34:08;;;;;;;;;;;;;;;9.71;36.77;101616.34;5047758;28;19928;-75
2022/04/10 12:36:43;;;;;;;;;;;;;;;9.66;36.76;101621.53;5053619;28;19979;-75
2022/04/10 12:39:08;;;;;;;;;;;;;;;9.76;37.95;101612.88;5049360;28;19921;-75
2022/04/10 12:41:34;;;;;;;;;;;;;;;9.88;37.24;101623.19;5025781;28;19971;-77
2022/04/10 12:44:03;;;;;;;;;;;;;;;9.84;36.86;101618.88;5044517;28;20396;-77
2022/04/10 12:46:36;;;;;;;;;;;;;;;9.57;36.62;101623.34;5051950;28;20324;-77